sensor_id;sensor_type;location;lat;lon;timestamp;temperature;humidity
1413;DHT22;701;52.526;13.408;2022-07-23T00:00:08;19.60;24.10
1413;DHT22;701;52.526;13.408;2022-07-23T00:02:34;19.60;24.10
1413;DHT22;701;52.526;13.408;2022-07-23T00:05:00;19.60;24.10
1413;DHT22;701;52.526;13.408;2022-07-23T00:07:25;19.60;24.00
1413;DHT22;701;52.526;13.408;2022-07-23T00:09:51;19.50;23.90
1413;DHT22;701;52.526;13.408;2022-07-23T00:12:17;19.50;23.80
1413;DHT22;701;52.526;13.408;2022-07-23T00:14:42;19.50;23.80
1413;DHT22;701;52.526;13.408;2022-07-23T00:17:08;19.40;23.60
1413;DHT22;701;52.526;13.408;2022-07-23T00:19:33;19.40;23.70
1413;DHT22;701;52.526;13.408;2022-07-23T00:21:59;19.40;23.60
1413;DHT22;701;52.526;13.408;2022-07-23T00:24:24;19.40;23.60
1413;DHT22;701;52.526;13.408;2022-07-23T00:26:50;19.40;23.60
1413;DHT22;701;52.526;13.408;2022-07-23T00:29:16;19.40;23.60
1413;DHT22;701;52.526;13.408;2022-07-23T00:31:41;19.40;23.50
1413;DHT22;701;52.526;13.408;2022-07-23T00:34:07;19.40;23.30
1413;DHT22;701;52.526;13.408;2022-07-23T00:36:33;19.40;23.10
1413;DHT22;701;52.526;13.408;2022-07-23T00:38:58;19.40;23.10
1413;DHT22;701;52.526;13.408;2022-07-23T00:41:24;19.40;23.10
1413;DHT22;701;52.526;13.408;2022-07-23T00:43:49;19.40;23.10
1413;DHT22;701;52.526;13.408;2022-07-23T00:46:21;19.40;23.10
1413;DHT22;701;52.526;13.408;2022-07-23T00:48:47;19.40;23.10
1413;DHT22;701;52.526;13.408;2022-07-23T00:51:15;19.40;23.10
1413;DHT22;701;52.526;13.408;2022-07-23T00:53:41;19.40;23.10
1413;DHT22;701;52.526;13.408;2022-07-23T00:56:07;19.40;23.10
1413;DHT22;701;52.526;13.408;2022-07-23T00:58:35;19.40;23.10
1413;DHT22;701;52.526;13.408;2022-07-23T01:01:00;19.30;23.10
1413;DHT22;701;52.526;13.408;2022-07-23T01:03:26;19.30;23.10
1413;DHT22;701;52.526;13.408;2022-07-23T01:05:52;19.30;23.20
1413;DHT22;701;52.526;13.408;2022-07-23T01:08:18;19.30;23.30
1413;DHT22;701;52.526;13.408;2022-07-23T01:10:44;19.30;23.50
1413;DHT22;701;52.526;13.408;2022-07-23T01:13:10;19.20;23.50
1413;DHT22;701;52.526;13.408;2022-07-23T01:15:37;19.20;23.80
1413;DHT22;701;52.526;13.408;2022-07-23T01:18:05;19.20;23.90
1413;DHT22;701;52.526;13.408;2022-07-23T01:20:32;19.10;24.10
1413;DHT22;701;52.526;13.408;2022-07-23T01:22:58;19.10;24.20
1413;DHT22;701;52.526;13.408;2022-07-23T01:25:23;19.10;24.30
1413;DHT22;701;52.526;13.408;2022-07-23T01:27:51;19.00;24.30
1413;DHT22;701;52.526;13.408;2022-07-23T01:30:17;19.00;24.40
1413;DHT22;701;52.526;13.408;2022-07-23T01:32:43;18.90;24.40
1413;DHT22;701;52.526;13.408;2022-07-23T01:35:09;18.90;24.60
1413;DHT22;701;52.526;13.408;2022-07-23T01:37:35;18.90;24.70
1413;DHT22;701;52.526;13.408;2022-07-23T01:40:01;18.80;24.80
1413;DHT22;701;52.526;13.408;2022-07-23T01:42:26;18.80;25.10
1413;DHT22;701;52.526;13.408;2022-07-23T01:44:52;18.70;25.20
1413;DHT22;701;52.526;13.408;2022-07-23T01:47:18;18.70;25.30
1413;DHT22;701;52.526;13.408;2022-07-23T01:49:43;18.70;25.50
1413;DHT22;701;52.526;13.408;2022-07-23T01:52:09;18.60;25.50
1413;DHT22;701;52.526;13.408;2022-07-23T01:54:37;18.60;25.70
1413;DHT22;701;52.526;13.408;2022-07-23T01:57:04;18.60;25.80
1413;DHT22;701;52.526;13.408;2022-07-23T01:59:30;18.50;25.90
1413;DHT22;701;52.526;13.408;2022-07-23T02:01:55;18.50;26.10
1413;DHT22;701;52.526;13.408;2022-07-23T02:04:23;18.50;26.10
1413;DHT22;701;52.526;13.408;2022-07-23T02:06:49;18.50;26.10
1413;DHT22;701;52.526;13.408;2022-07-23T02:09:15;18.50;26.10
1413;DHT22;701;52.526;13.408;2022-07-23T02:11:41;18.60;26.30
1413;DHT22;701;52.526;13.408;2022-07-23T02:14:07;18.60;26.20
1413;DHT22;701;52.526;13.408;2022-07-23T02:16:32;18.60;26.00
1413;DHT22;701;52.526;13.408;2022-07-23T02:18:58;18.70;25.90
1413;DHT22;701;52.526;13.408;2022-07-23T02:21:23;18.70;25.70
1413;DHT22;701;52.526;13.408;2022-07-23T02:23:49;18.70;25.60
1413;DHT22;701;52.526;13.408;2022-07-23T02:26:15;18.80;25.50
1413;DHT22;701;52.526;13.408;2022-07-23T02:28:40;18.80;25.40
1413;DHT22;701;52.526;13.408;2022-07-23T02:31:06;18.80;25.20
1413;DHT22;701;52.526;13.408;2022-07-23T02:33:32;18.70;25.10
1413;DHT22;701;52.526;13.408;2022-07-23T02:36:01;18.70;25.10
1413;DHT22;701;52.526;13.408;2022-07-23T02:38:27;18.70;25.10
1413;DHT22;701;52.526;13.408;2022-07-23T02:40:52;18.70;25.10
1413;DHT22;701;52.526;13.408;2022-07-23T02:43:18;18.70;25.10
1413;DHT22;701;52.526;13.408;2022-07-23T02:45:43;18.70;25.10
1413;DHT22;701;52.526;13.408;2022-07-23T02:48:09;18.70;25.10
1413;DHT22;701;52.526;13.408;2022-07-23T02:50:37;18.70;25.20
1413;DHT22;701;52.526;13.408;2022-07-23T02:53:03;18.70;25.30
1413;DHT22;701;52.526;13.408;2022-07-23T02:55:29;18.60;25.30
1413;DHT22;701;52.526;13.408;2022-07-23T02:57:54;18.60;25.50
1413;DHT22;701;52.526;13.408;2022-07-23T03:00:20;18.50;25.50
1413;DHT22;701;52.526;13.408;2022-07-23T03:02:46;18.50;25.70
1413;DHT22;701;52.526;13.408;2022-07-23T03:05:11;18.50;25.80
1413;DHT22;701;52.526;13.408;2022-07-23T03:07:37;18.40;26.00
1413;DHT22;701;52.526;13.408;2022-07-23T03:10:03;18.40;26.10
1413;DHT22;701;52.526;13.408;2022-07-23T03:12:28;18.40;26.10
1413;DHT22;701;52.526;13.408;2022-07-23T03:14:54;18.40;26.60
1413;DHT22;701;52.526;13.408;2022-07-23T03:17:19;18.40;26.10
1413;DHT22;701;52.526;13.408;2022-07-23T03:19:45;18.30;26.10
1413;DHT22;701;52.526;13.408;2022-07-23T03:22:10;18.30;26.10
1413;DHT22;701;52.526;13.408;2022-07-23T03:24:36;18.30;26.10
1413;DHT22;701;52.526;13.408;2022-07-23T03:27:26;18.40;26.10
1413;DHT22;701;52.526;13.408;2022-07-23T03:29:54;18.40;26.10
1413;DHT22;701;52.526;13.408;2022-07-23T03:32:21;18.40;26.10
1413;DHT22;701;52.526;13.408;2022-07-23T03:34:47;18.40;25.80
1413;DHT22;701;52.526;13.408;2022-07-23T03:37:13;18.40;25.80
1413;DHT22;701;52.526;13.408;2022-07-23T03:39:38;18.30;25.70
1413;DHT22;701;52.526;13.408;2022-07-23T03:42:04;18.40;25.60
1413;DHT22;701;52.526;13.408;2022-07-23T03:44:30;18.40;25.60
1413;DHT22;701;52.526;13.408;2022-07-23T03:46:55;18.40;25.50
1413;DHT22;701;52.526;13.408;2022-07-23T03:49:21;18.40;25.30
1413;DHT22;701;52.526;13.408;2022-07-23T03:51:47;18.40;25.20
1413;DHT22;701;52.526;13.408;2022-07-23T03:54:13;18.40;25.20
1413;DHT22;701;52.526;13.408;2022-07-23T03:56:38;18.40;25.10
1413;DHT22;701;52.526;13.408;2022-07-23T03:59:04;18.40;24.80
1413;DHT22;701;52.526;13.408;2022-07-23T04:01:30;18.40;24.50
1413;DHT22;701;52.526;13.408;2022-07-23T04:03:55;18.40;24.40
1413;DHT22;701;52.526;13.408;2022-07-23T04:06:21;18.50;24.10
1413;DHT22;701;52.526;13.408;2022-07-23T04:08:46;18.40;23.80
1413;DHT22;701;52.526;13.408;2022-07-23T04:11:12;18.50;23.50
1413;DHT22;701;52.526;13.408;2022-07-23T04:13:38;18.50;23.10
1413;DHT22;701;52.526;13.408;2022-07-23T04:16:04;18.50;22.90
1413;DHT22;701;52.526;13.408;2022-07-23T04:18:30;18.50;23.40
1413;DHT22;701;52.526;13.408;2022-07-23T04:20:56;18.50;22.70
1413;DHT22;701;52.526;13.408;2022-07-23T04:23:21;18.40;22.50
1413;DHT22;701;52.526;13.408;2022-07-23T04:25:47;18.40;22.50
1413;DHT22;701;52.526;13.408;2022-07-23T04:28:13;18.40;22.50
1413;DHT22;701;52.526;13.408;2022-07-23T04:30:38;18.40;22.50
1413;DHT22;701;52.526;13.408;2022-07-23T04:33:04;18.50;22.20
1413;DHT22;701;52.526;13.408;2022-07-23T04:35:35;18.50;21.70
1413;DHT22;701;52.526;13.408;2022-07-23T04:38:02;18.50;21.80
1413;DHT22;701;52.526;13.408;2022-07-23T04:40:28;18.50;21.10
1413;DHT22;701;52.526;13.408;2022-07-23T04:42:54;18.50;21.40
1413;DHT22;701;52.526;13.408;2022-07-23T04:45:19;18.50;22.50
1413;DHT22;701;52.526;13.408;2022-07-23T04:47:45;18.50;22.50
1413;DHT22;701;52.526;13.408;2022-07-23T04:50:11;18.50;23.20
1413;DHT22;701;52.526;13.408;2022-07-23T04:52:36;18.40;23.70
1413;DHT22;701;52.526;13.408;2022-07-23T04:55:03;18.30;24.30
1413;DHT22;701;52.526;13.408;2022-07-23T04:57:28;18.30;24.90
1413;DHT22;701;52.526;13.408;2022-07-23T04:59:54;18.20;24.90
1413;DHT22;701;52.526;13.408;2022-07-23T05:02:19;18.20;25.40
1413;DHT22;701;52.526;13.408;2022-07-23T05:04:45;18.10;26.00
1413;DHT22;701;52.526;13.408;2022-07-23T05:07:11;18.00;25.80
1413;DHT22;701;52.526;13.408;2022-07-23T05:09:37;18.00;26.70
1413;DHT22;701;52.526;13.408;2022-07-23T05:12:02;17.90;27.50
1413;DHT22;701;52.526;13.408;2022-07-23T05:14:28;17.80;27.70
1413;DHT22;701;52.526;13.408;2022-07-23T05:16:54;17.70;27.90
1413;DHT22;701;52.526;13.408;2022-07-23T05:19:19;17.70;28.10
1413;DHT22;701;52.526;13.408;2022-07-23T05:21:45;17.60;28.40
1413;DHT22;701;52.526;13.408;2022-07-23T05:24:11;17.60;28.60
1413;DHT22;701;52.526;13.408;2022-07-23T05:26:36;17.60;29.00
1413;DHT22;701;52.526;13.408;2022-07-23T05:29:02;17.60;29.20
1413;DHT22;701;52.526;13.408;2022-07-23T05:31:27;17.70;29.20
1413;DHT22;701;52.526;13.408;2022-07-23T05:33:53;17.70;29.20
1413;DHT22;701;52.526;13.408;2022-07-23T05:36:19;17.60;29.20
1413;DHT22;701;52.526;13.408;2022-07-23T05:38:45;17.60;29.20
1413;DHT22;701;52.526;13.408;2022-07-23T05:41:11;17.50;29.10
1413;DHT22;701;52.526;13.408;2022-07-23T05:43:36;17.50;29.10
1413;DHT22;701;52.526;13.408;2022-07-23T05:46:02;17.50;29.30
1413;DHT22;701;52.526;13.408;2022-07-23T05:48:27;17.50;29.10
1413;DHT22;701;52.526;13.408;2022-07-23T05:50:53;17.50;29.10
1413;DHT22;701;52.526;13.408;2022-07-23T05:53:18;17.60;29.50
1413;DHT22;701;52.526;13.408;2022-07-23T05:55:44;17.60;29.50
1413;DHT22;701;52.526;13.408;2022-07-23T05:58:10;17.60;29.20
1413;DHT22;701;52.526;13.408;2022-07-23T06:00:35;17.60;29.20
1413;DHT22;701;52.526;13.408;2022-07-23T06:03:01;17.70;29.20
1413;DHT22;701;52.526;13.408;2022-07-23T06:05:26;17.70;29.20
1413;DHT22;701;52.526;13.408;2022-07-23T06:07:52;17.70;29.20
1413;DHT22;701;52.526;13.408;2022-07-23T06:10:18;17.80;29.30
1413;DHT22;701;52.526;13.408;2022-07-23T06:12:44;17.70;29.20
1413;DHT22;701;52.526;13.408;2022-07-23T06:15:10;17.70;29.90
1413;DHT22;701;52.526;13.408;2022-07-23T06:17:37;17.70;30.50
1413;DHT22;701;52.526;13.408;2022-07-23T06:20:05;17.60;30.80
1413;DHT22;701;52.526;13.408;2022-07-23T06:22:31;17.60;31.50
1413;DHT22;701;52.526;13.408;2022-07-23T06:24:57;17.60;31.50
1413;DHT22;701;52.526;13.408;2022-07-23T06:27:22;17.60;31.80
1413;DHT22;701;52.526;13.408;2022-07-23T06:29:48;17.60;31.70
1413;DHT22;701;52.526;13.408;2022-07-23T06:32:13;17.60;32.20
1413;DHT22;701;52.526;13.408;2022-07-23T06:34:39;17.50;32.30
1413;DHT22;701;52.526;13.408;2022-07-23T06:37:04;17.60;32.60
1413;DHT22;701;52.526;13.408;2022-07-23T06:39:30;17.50;32.30
1413;DHT22;701;52.526;13.408;2022-07-23T06:41:56;17.60;33.30
1413;DHT22;701;52.526;13.408;2022-07-23T06:44:22;17.50;33.30
1413;DHT22;701;52.526;13.408;2022-07-23T06:46:47;17.50;33.30
1413;DHT22;701;52.526;13.408;2022-07-23T06:49:13;17.50;33.30
1413;DHT22;701;52.526;13.408;2022-07-23T06:51:39;17.60;33.40
1413;DHT22;701;52.526;13.408;2022-07-23T06:54:05;17.70;33.40
1413;DHT22;701;52.526;13.408;2022-07-23T06:56:31;17.80;33.50
1413;DHT22;701;52.526;13.408;2022-07-23T06:58:56;17.90;33.70
1413;DHT22;701;52.526;13.408;2022-07-23T07:01:22;18.00;33.70
1413;DHT22;701;52.526;13.408;2022-07-23T07:03:47;18.10;33.10
1413;DHT22;701;52.526;13.408;2022-07-23T07:06:13;18.20;32.60
1413;DHT22;701;52.526;13.408;2022-07-23T07:08:39;18.30;32.30
1413;DHT22;701;52.526;13.408;2022-07-23T07:11:05;18.30;31.60
1413;DHT22;701;52.526;13.408;2022-07-23T07:13:30;18.30;32.60
1413;DHT22;701;52.526;13.408;2022-07-23T07:15:57;18.30;32.20
1413;DHT22;701;52.526;13.408;2022-07-23T07:18:22;18.40;32.40
1413;DHT22;701;52.526;13.408;2022-07-23T07:20:49;18.50;32.30
1413;DHT22;701;52.526;13.408;2022-07-23T07:23:14;18.60;32.00
1413;DHT22;701;52.526;13.408;2022-07-23T07:25:40;18.80;31.50
1413;DHT22;701;52.526;13.408;2022-07-23T07:28:05;19.10;31.00
1413;DHT22;701;52.526;13.408;2022-07-23T07:30:31;19.30;30.20
1413;DHT22;701;52.526;13.408;2022-07-23T07:32:57;19.50;29.50
1413;DHT22;701;52.526;13.408;2022-07-23T07:35:22;19.70;28.90
1413;DHT22;701;52.526;13.408;2022-07-23T07:37:48;19.90;28.10
1413;DHT22;701;52.526;13.408;2022-07-23T07:40:15;19.90;27.60
1413;DHT22;701;52.526;13.408;2022-07-23T07:42:48;20.10;27.50
1413;DHT22;701;52.526;13.408;2022-07-23T07:45:14;20.20;27.30
1413;DHT22;701;52.526;13.408;2022-07-23T07:47:42;20.30;27.40
1413;DHT22;701;52.526;13.408;2022-07-23T07:50:09;20.60;27.50
1413;DHT22;701;52.526;13.408;2022-07-23T07:52:35;20.80;27.00
1413;DHT22;701;52.526;13.408;2022-07-23T07:55:06;21.10;26.40
1413;DHT22;701;52.526;13.408;2022-07-23T07:57:32;21.40;25.30
1413;DHT22;701;52.526;13.408;2022-07-23T07:59:58;21.50;24.50
1413;DHT22;701;52.526;13.408;2022-07-23T08:02:24;21.40;24.20
1413;DHT22;701;52.526;13.408;2022-07-23T08:04:49;21.70;23.90
1413;DHT22;701;52.526;13.408;2022-07-23T08:07:15;22.70;23.10
1413;DHT22;701;52.526;13.408;2022-07-23T08:09:41;23.70;20.40
1413;DHT22;701;52.526;13.408;2022-07-23T08:12:07;24.20;18.50
1413;DHT22;701;52.526;13.408;2022-07-23T08:14:33;24.70;17.30
1413;DHT22;701;52.526;13.408;2022-07-23T08:16:58;25.90;15.50
1413;DHT22;701;52.526;13.408;2022-07-23T08:19:24;27.40;12.40
1413;DHT22;701;52.526;13.408;2022-07-23T08:21:49;29.50;9.20
1413;DHT22;701;52.526;13.408;2022-07-23T08:24:15;31.40;4.90
1413;DHT22;701;52.526;13.408;2022-07-23T08:26:41;33.10;1.90
1413;DHT22;701;52.526;13.408;2022-07-23T08:29:06;34.40;1.00
1413;DHT22;701;52.526;13.408;2022-07-23T08:31:32;35.30;1.00
1413;DHT22;701;52.526;13.408;2022-07-23T08:33:59;35.90;1.00
1413;DHT22;701;52.526;13.408;2022-07-23T08:36:24;36.40;1.00
1413;DHT22;701;52.526;13.408;2022-07-23T08:38:53;36.30;1.00
1413;DHT22;701;52.526;13.408;2022-07-23T08:41:19;36.40;1.00
1413;DHT22;701;52.526;13.408;2022-07-23T08:43:45;36.50;1.00
1413;DHT22;701;52.526;13.408;2022-07-23T08:46:13;36.60;1.00
1413;DHT22;701;52.526;13.408;2022-07-23T08:48:39;36.70;1.00
1413;DHT22;701;52.526;13.408;2022-07-23T08:51:07;37.30;1.00
1413;DHT22;701;52.526;13.408;2022-07-23T08:53:34;38.00;1.00
1413;DHT22;701;52.526;13.408;2022-07-23T08:56:05;38.70;1.00
1413;DHT22;701;52.526;13.408;2022-07-23T08:58:31;38.80;1.00
1413;DHT22;701;52.526;13.408;2022-07-23T09:00:58;39.50;1.00
1413;DHT22;701;52.526;13.408;2022-07-23T09:03:29;39.80;1.00
1413;DHT22;701;52.526;13.408;2022-07-23T09:05:57;39.80;1.00
1413;DHT22;701;52.526;13.408;2022-07-23T09:08:34;39.80;1.00
1413;DHT22;701;52.526;13.408;2022-07-23T09:11:03;40.10;1.00
1413;DHT22;701;52.526;13.408;2022-07-23T09:15:57;39.80;1.00
1413;DHT22;701;52.526;13.408;2022-07-23T09:18:34;39.80;1.00
1413;DHT22;701;52.526;13.408;2022-07-23T09:21:17;39.80;1.00
1413;DHT22;701;52.526;13.408;2022-07-23T09:29:05;38.10;1.00
1413;DHT22;701;52.526;13.408;2022-07-23T09:31:33;37.50;1.00
1413;DHT22;701;52.526;13.408;2022-07-23T09:34:26;37.20;1.00
1413;DHT22;701;52.526;13.408;2022-07-23T09:36:57;36.90;1.00
1413;DHT22;701;52.526;13.408;2022-07-23T09:39:28;36.60;1.00
1413;DHT22;701;52.526;13.408;2022-07-23T09:41:55;37.00;1.00
1413;DHT22;701;52.526;13.408;2022-07-23T09:44:21;37.10;1.00
1413;DHT22;701;52.526;13.408;2022-07-23T09:46:48;36.70;1.00
1413;DHT22;701;52.526;13.408;2022-07-23T09:49:21;36.50;1.00
1413;DHT22;701;52.526;13.408;2022-07-23T09:51:58;36.60;1.00
1413;DHT22;701;52.526;13.408;2022-07-23T09:54:35;36.90;1.00
1413;DHT22;701;52.526;13.408;2022-07-23T09:57:10;37.10;1.00
1413;DHT22;701;52.526;13.408;2022-07-23T09:59:42;37.10;1.00
1413;DHT22;701;52.526;13.408;2022-07-23T10:02:10;36.80;1.00
1413;DHT22;701;52.526;13.408;2022-07-23T10:04:37;36.70;1.00
1413;DHT22;701;52.526;13.408;2022-07-23T10:07:05;36.20;1.00
1413;DHT22;701;52.526;13.408;2022-07-23T10:09:34;35.70;1.00
1413;DHT22;701;52.526;13.408;2022-07-23T10:12:03;35.30;1.00
1413;DHT22;701;52.526;13.408;2022-07-23T10:14:42;35.30;1.00
1413;DHT22;701;52.526;13.408;2022-07-23T10:17:07;35.60;1.00
1413;DHT22;701;52.526;13.408;2022-07-23T10:19:33;36.00;1.00
1413;DHT22;701;52.526;13.408;2022-07-23T10:22:23;36.20;1.00
1413;DHT22;701;52.526;13.408;2022-07-23T10:25:04;36.10;1.00
1413;DHT22;701;52.526;13.408;2022-07-23T10:30:17;35.30;1.00
1413;DHT22;701;52.526;13.408;2022-07-23T10:35:31;34.00;1.00
1413;DHT22;701;52.526;13.408;2022-07-23T10:38:11;33.30;1.00
1413;DHT22;701;52.526;13.408;2022-07-23T10:40:57;32.80;1.00
1413;DHT22;701;52.526;13.408;2022-07-23T10:43:23;32.50;1.00
1413;DHT22;701;52.526;13.408;2022-07-23T10:45:49;32.40;1.00
1413;DHT22;701;52.526;13.408;2022-07-23T10:48:16;32.20;1.00
1413;DHT22;701;52.526;13.408;2022-07-23T10:50:42;32.00;1.00
1413;DHT22;701;52.526;13.408;2022-07-23T10:53:12;31.90;1.00
1413;DHT22;701;52.526;13.408;2022-07-23T10:55:42;31.80;1.00
1413;DHT22;701;52.526;13.408;2022-07-23T10:58:07;31.60;1.00
1413;DHT22;701;52.526;13.408;2022-07-23T11:00:36;31.30;1.00
1413;DHT22;701;52.526;13.408;2022-07-23T11:05:47;31.10;1.00
1413;DHT22;701;52.526;13.408;2022-07-23T11:08:16;31.10;1.00
1413;DHT22;701;52.526;13.408;2022-07-23T11:10:54;30.90;1.00
1413;DHT22;701;52.526;13.408;2022-07-23T11:16:17;30.60;1.00
1413;DHT22;701;52.526;13.408;2022-07-23T11:24:15;30.20;1.00
1413;DHT22;701;52.526;13.408;2022-07-23T11:26:55;30.00;1.00
1413;DHT22;701;52.526;13.408;2022-07-23T11:35:26;29.40;1.00
1413;DHT22;701;52.526;13.408;2022-07-23T11:37:54;29.40;1.00
1413;DHT22;701;52.526;13.408;2022-07-23T11:40:24;29.40;1.00
1413;DHT22;701;52.526;13.408;2022-07-23T11:43:05;29.30;1.00
1413;DHT22;701;52.526;13.408;2022-07-23T11:48:04;29.30;1.00
1413;DHT22;701;52.526;13.408;2022-07-23T11:50:30;29.30;1.00
1413;DHT22;701;52.526;13.408;2022-07-23T11:52:56;29.30;1.00
1413;DHT22;701;52.526;13.408;2022-07-23T11:55:21;29.10;1.00
1413;DHT22;701;52.526;13.408;2022-07-23T11:57:47;29.00;1.00
1413;DHT22;701;52.526;13.408;2022-07-23T12:00:16;28.90;1.00
1413;DHT22;701;52.526;13.408;2022-07-23T12:02:44;28.80;1.00
1413;DHT22;701;52.526;13.408;2022-07-23T12:05:15;28.90;1.00
1413;DHT22;701;52.526;13.408;2022-07-23T12:07:43;29.10;1.00
1413;DHT22;701;52.526;13.408;2022-07-23T12:12:39;29.20;1.00
1413;DHT22;701;52.526;13.408;2022-07-23T12:15:05;29.20;1.00
1413;DHT22;701;52.526;13.408;2022-07-23T12:17:33;29.40;1.00
1413;DHT22;701;52.526;13.408;2022-07-23T12:20:00;29.40;1.00
1413;DHT22;701;52.526;13.408;2022-07-23T12:22:44;29.30;1.00
1413;DHT22;701;52.526;13.408;2022-07-23T12:25:21;29.30;1.00
1413;DHT22;701;52.526;13.408;2022-07-23T12:28:02;29.20;1.00
1413;DHT22;701;52.526;13.408;2022-07-23T12:30:34;29.10;1.00
1413;DHT22;701;52.526;13.408;2022-07-23T12:33:02;28.90;1.00
1413;DHT22;701;52.526;13.408;2022-07-23T12:35:34;28.70;1.00
1413;DHT22;701;52.526;13.408;2022-07-23T12:38:03;28.70;1.00
1413;DHT22;701;52.526;13.408;2022-07-23T12:40:52;28.70;1.00
1413;DHT22;701;52.526;13.408;2022-07-23T12:43:27;28.70;1.00
1413;DHT22;701;52.526;13.408;2022-07-23T12:49:07;28.60;1.00
1413;DHT22;701;52.526;13.408;2022-07-23T12:51:14;28.70;1.00
1413;DHT22;701;52.526;13.408;2022-07-23T12:53:42;28.80;1.00
1413;DHT22;701;52.526;13.408;2022-07-23T12:56:38;28.90;1.00
1413;DHT22;701;52.526;13.408;2022-07-23T12:59:05;29.00;1.00
1413;DHT22;701;52.526;13.408;2022-07-23T13:04:03;28.70;1.00
1413;DHT22;701;52.526;13.408;2022-07-23T13:06:30;28.50;1.00
1413;DHT22;701;52.526;13.408;2022-07-23T13:08:57;28.20;1.00
1413;DHT22;701;52.526;13.408;2022-07-23T13:11:23;28.00;1.00
1413;DHT22;701;52.526;13.408;2022-07-23T13:13:49;27.90;1.00
1413;DHT22;701;52.526;13.408;2022-07-23T13:16:15;28.00;1.00
1413;DHT22;701;52.526;13.408;2022-07-23T13:18:40;27.90;1.00
1413;DHT22;701;52.526;13.408;2022-07-23T13:21:06;27.70;1.00
1413;DHT22;701;52.526;13.408;2022-07-23T13:23:31;27.60;1.00
1413;DHT22;701;52.526;13.408;2022-07-23T13:25:57;27.60;1.00
1413;DHT22;701;52.526;13.408;2022-07-23T13:28:23;27.60;1.00
1413;DHT22;701;52.526;13.408;2022-07-23T13:30:50;27.70;1.00
1413;DHT22;701;52.526;13.408;2022-07-23T13:33:22;27.70;1.00
1413;DHT22;701;52.526;13.408;2022-07-23T13:35:49;27.90;1.00
1413;DHT22;701;52.526;13.408;2022-07-23T13:38:16;28.10;1.00
1413;DHT22;701;52.526;13.408;2022-07-23T13:40:44;28.30;1.00
1413;DHT22;701;52.526;13.408;2022-07-23T13:43:12;28.40;1.00
1413;DHT22;701;52.526;13.408;2022-07-23T13:45:38;28.50;1.00
1413;DHT22;701;52.526;13.408;2022-07-23T13:48:06;28.60;1.00
1413;DHT22;701;52.526;13.408;2022-07-23T13:50:32;28.60;1.00
1413;DHT22;701;52.526;13.408;2022-07-23T13:53:01;28.60;1.00
1413;DHT22;701;52.526;13.408;2022-07-23T13:55:26;28.50;1.00
1413;DHT22;701;52.526;13.408;2022-07-23T13:57:52;28.50;1.00
1413;DHT22;701;52.526;13.408;2022-07-23T14:00:18;28.50;1.00
1413;DHT22;701;52.526;13.408;2022-07-23T14:02:43;28.50;1.00
1413;DHT22;701;52.526;13.408;2022-07-23T14:05:10;28.50;1.00
1413;DHT22;701;52.526;13.408;2022-07-23T14:07:37;28.50;1.00
1413;DHT22;701;52.526;13.408;2022-07-23T14:10:04;28.50;1.00
1413;DHT22;701;52.526;13.408;2022-07-23T14:12:30;28.50;1.00
1413;DHT22;701;52.526;13.408;2022-07-23T14:14:55;28.50;1.00
1413;DHT22;701;52.526;13.408;2022-07-23T14:17:21;28.50;1.00
1413;DHT22;701;52.526;13.408;2022-07-23T14:19:47;28.40;1.00
1413;DHT22;701;52.526;13.408;2022-07-23T14:22:13;28.30;1.00
1413;DHT22;701;52.526;13.408;2022-07-23T14:24:38;28.40;1.00
1413;DHT22;701;52.526;13.408;2022-07-23T14:27:04;28.50;1.00
1413;DHT22;701;52.526;13.408;2022-07-23T14:29:30;28.60;1.00
1413;DHT22;701;52.526;13.408;2022-07-23T14:31:57;28.60;1.00
1413;DHT22;701;52.526;13.408;2022-07-23T14:34:23;28.50;1.00
1413;DHT22;701;52.526;13.408;2022-07-23T14:36:49;28.50;1.00
1413;DHT22;701;52.526;13.408;2022-07-23T14:39:14;28.50;1.00
1413;DHT22;701;52.526;13.408;2022-07-23T14:41:40;28.40;1.00
1413;DHT22;701;52.526;13.408;2022-07-23T14:44:06;28.30;1.00
1413;DHT22;701;52.526;13.408;2022-07-23T14:46:32;28.30;1.00
1413;DHT22;701;52.526;13.408;2022-07-23T14:48:57;28.20;1.00
1413;DHT22;701;52.526;13.408;2022-07-23T14:51:23;28.20;1.00
1413;DHT22;701;52.526;13.408;2022-07-23T14:53:49;28.20;1.00
1413;DHT22;701;52.526;13.408;2022-07-23T14:56:14;28.10;1.00
1413;DHT22;701;52.526;13.408;2022-07-23T14:58:40;27.90;1.00
1413;DHT22;701;52.526;13.408;2022-07-23T15:01:06;27.80;1.00
1413;DHT22;701;52.526;13.408;2022-07-23T15:03:32;27.60;1.00
1413;DHT22;701;52.526;13.408;2022-07-23T15:05:58;27.60;1.00
1413;DHT22;701;52.526;13.408;2022-07-23T15:08:24;27.70;1.00
1413;DHT22;701;52.526;13.408;2022-07-23T15:10:50;27.80;1.00
1413;DHT22;701;52.526;13.408;2022-07-23T15:13:16;27.80;1.00
1413;DHT22;701;52.526;13.408;2022-07-23T15:15:42;27.90;1.00
1413;DHT22;701;52.526;13.408;2022-07-23T15:18:07;27.90;1.00
1413;DHT22;701;52.526;13.408;2022-07-23T15:20:33;27.90;1.00
1413;DHT22;701;52.526;13.408;2022-07-23T15:22:59;27.80;1.00
1413;DHT22;701;52.526;13.408;2022-07-23T15:25:25;27.70;1.00
1413;DHT22;701;52.526;13.408;2022-07-23T15:27:51;27.70;1.00
1413;DHT22;701;52.526;13.408;2022-07-23T15:30:17;27.70;1.00
1413;DHT22;701;52.526;13.408;2022-07-23T15:32:43;27.70;1.00
1413;DHT22;701;52.526;13.408;2022-07-23T15:35:09;27.70;1.00
1413;DHT22;701;52.526;13.408;2022-07-23T15:37:35;27.60;1.00
1413;DHT22;701;52.526;13.408;2022-07-23T15:40:01;27.40;1.00
1413;DHT22;701;52.526;13.408;2022-07-23T15:42:29;27.20;1.00
1413;DHT22;701;52.526;13.408;2022-07-23T15:44:54;27.10;1.00
1413;DHT22;701;52.526;13.408;2022-07-23T15:47:20;27.10;1.00
1413;DHT22;701;52.526;13.408;2022-07-23T15:49:46;27.20;1.00
1413;DHT22;701;52.526;13.408;2022-07-23T15:52:12;27.40;1.00
1413;DHT22;701;52.526;13.408;2022-07-23T15:54:38;27.40;1.00
1413;DHT22;701;52.526;13.408;2022-07-23T15:57:04;27.30;1.00
1413;DHT22;701;52.526;13.408;2022-07-23T15:59:30;27.20;1.00
1413;DHT22;701;52.526;13.408;2022-07-23T16:01:56;27.20;1.00
1413;DHT22;701;52.526;13.408;2022-07-23T16:04:22;27.10;1.00
1413;DHT22;701;52.526;13.408;2022-07-23T16:06:47;27.20;1.00
1413;DHT22;701;52.526;13.408;2022-07-23T16:09:13;27.20;1.00
1413;DHT22;701;52.526;13.408;2022-07-23T16:11:38;27.10;1.00
1413;DHT22;701;52.526;13.408;2022-07-23T16:14:04;27.10;1.00
1413;DHT22;701;52.526;13.408;2022-07-23T16:16:30;27.10;1.00
1413;DHT22;701;52.526;13.408;2022-07-23T16:18:56;27.10;1.00
1413;DHT22;701;52.526;13.408;2022-07-23T16:21:22;27.10;1.00
1413;DHT22;701;52.526;13.408;2022-07-23T16:23:48;27.20;1.00
1413;DHT22;701;52.526;13.408;2022-07-23T16:26:13;27.20;1.00
1413;DHT22;701;52.526;13.408;2022-07-23T16:28:41;27.10;1.00
1413;DHT22;701;52.526;13.408;2022-07-23T16:31:07;27.10;1.00
1413;DHT22;701;52.526;13.408;2022-07-23T16:33:33;27.10;1.00
1413;DHT22;701;52.526;13.408;2022-07-23T16:35:59;27.00;1.00
1413;DHT22;701;52.526;13.408;2022-07-23T16:38:25;27.00;1.00
1413;DHT22;701;52.526;13.408;2022-07-23T16:40:51;27.00;1.00
1413;DHT22;701;52.526;13.408;2022-07-23T16:43:17;26.90;1.00
1413;DHT22;701;52.526;13.408;2022-07-23T16:45:46;26.70;1.00
1413;DHT22;701;52.526;13.408;2022-07-23T16:48:12;26.60;1.00